Time;durP1;ratioP1;P1;durP2;ratioP2;P2;SDS_P1;SDS_P2;PMS_P1;PMS_P2;Temp;Humidity;BMP_temperature;BMP_pressure;BME280_temperature;BME280_humidity;BME280_pressure;Samples;Min_cycle;Max_cycle;Signal;HPM_P1;HPM_P2
2022/09/10 00:00:03;;;;;;;;;;;;;;;14.35;94.60;100870.13;5046248;28;19921;-58
2022/09/10 00:02:28;;;;;;;;;;;;;;;14.33;94.43;100872.97;5044759;28;20348;-58
2022/09/10 00:04:54;;;;;;;;;;;;;;;14.34;94.59;100871.13;5044040;28;19916;-57
2022/09/10 00:07:19;;;;;;;;;;;;;;;14.33;95.05;100864.16;5043368;28;20360;-58
2022/09/10 00:09:44;;;;;;;;;;;;;;;14.33;94.93;100858.81;5049016;28;19920;-58
2022/09/10 00:12:09;;;;;;;;;;;;;;;14.33;94.67;100870.31;5042961;28;19920;-58
2022/09/10 00:14:35;;;;;;;;;;;;;;;14.32;94.69;100857.97;5046901;28;20016;-57
2022/09/10 00:17:00;;;;;;;;;;;;;;;14.33;94.83;100853.47;5042524;28;19916;-58
2022/09/10 00:19:25;;;;;;;;;;;;;;;14.31;95.13;100856.31;5047454;28;19924;-58
2022/09/10 00:21:50;;;;;;;;;;;;;;;14.29;95.37;100855.69;5040739;28;20401;-58
2022/09/10 00:24:16;;;;;;;;;;;;;;;14.29;95.38;100854.88;5044350;28;19921;-58
2022/09/10 00:26:41;;;;;;;;;;;;;;;14.30;95.40;100862.69;5047159;28;19924;-58
2022/09/10 00:29:07;;;;;;;;;;;;;;;14.29;95.46;100858.38;5046996;28;20459;-58
2022/09/10 00:31:33;;;;;;;;;;;;;;;14.29;95.68;100855.69;5044833;28;19921;-56
2022/09/10 00:33:59;;;;;;;;;;;;;;;14.31;95.25;100852.81;5041448;28;20391;-57
2022/09/10 00:36:24;;;;;;;;;;;;;;;14.32;95.55;100854.47;5042669;28;19968;-57
2022/09/10 00:38:50;;;;;;;;;;;;;;;14.33;95.60;100851.59;5049474;28;19956;-57
2022/09/10 00:41:16;;;;;;;;;;;;;;;14.33;95.76;100859.63;5048497;28;19917;-58
2022/09/10 00:43:54;;;;;;;;;;;;;;;14.35;95.45;100865.59;5049229;28;20381;-58
2022/09/10 00:46:41;;;;;;;;;;;;;;;14.36;95.82;100861.06;5044279;28;19917;-57
2022/09/10 00:49:22;;;;;;;;;;;;;;;14.36;95.87;100858.41;5039586;28;19919;-58
2022/09/10 00:51:50;;;;;;;;;;;;;;;14.37;95.83;100857.38;5046860;28;20411;-57
2022/09/10 00:54:17;;;;;;;;;;;;;;;14.38;95.71;100859.88;5048837;28;19955;-57
2022/09/10 00:56:42;;;;;;;;;;;;;;;14.38;95.89;100857.19;5048924;28;19917;-56
2022/09/10 00:59:08;;;;;;;;;;;;;;;14.38;96.39;100857.19;5045734;28;19913;-58
2022/09/10 01:01:35;;;;;;;;;;;;;;;14.41;96.38;100858.66;5038742;28;19920;-57
2022/09/10 01:04:02;;;;;;;;;;;;;;;14.41;96.22;100859.47;5046567;28;19917;-58
2022/09/10 01:06:27;;;;;;;;;;;;;;;14.43;96.33;100865.47;5045887;28;19967;-58
2022/09/10 01:08:52;;;;;;;;;;;;;;;14.45;96.20;100868.78;5050421;28;19920;-57
2022/09/10 01:11:23;;;;;;;;;;;;;;;14.46;96.24;100870.44;5050096;28;20015;-56
2022/09/10 01:14:00;;;;;;;;;;;;;;;14.46;96.04;100864.28;5048306;28;19979;-58
2022/09/10 01:16:26;;;;;;;;;;;;;;;14.45;96.43;100865.28;5045352;28;19971;-57
2022/09/10 01:19:10;;;;;;;;;;;;;;;14.46;96.36;100861.63;5050584;28;20584;-58
2022/09/10 01:21:54;;;;;;;;;;;;;;;14.46;96.29;100870.44;5044470;28;19974;-57
2022/09/10 01:24:31;;;;;;;;;;;;;;;14.46;96.27;100865.13;5052761;28;19946;-57
2022/09/10 01:27:22;;;;;;;;;;;;;;;14.47;96.12;100877.44;5044520;28;20280;-58
2022/09/10 01:29:57;;;;;;;;;;;;;;;14.47;96.33;100871.28;5044065;28;20059;-57
2022/09/10 01:32:27;;;;;;;;;;;;;;;14.46;96.53;100870.44;5046749;28;20011;-55
2022/09/10 01:35:03;;;;;;;;;;;;;;;14.45;96.77;100868.78;5045827;28;20199;-57
2022/09/10 01:37:30;;;;;;;;;;;;;;;14.47;96.63;100876.63;5047511;28;20314;-57
2022/09/10 01:39:55;;;;;;;;;;;;;;;14.45;97.23;100881.31;5046835;28;19956;-57
2022/09/10 01:42:24;;;;;;;;;;;;;;;14.44;96.94;100867.13;5047899;28;19960;-56
2022/09/10 01:44:50;;;;;;;;;;;;;;;14.44;97.39;100866.28;5048483;28;20000;-57
2022/09/10 01:47:34;;;;;;;;;;;;;;;14.42;97.02;100871.81;5046212;28;19971;-57
2022/09/10 01:50:20;;;;;;;;;;;;;;;14.42;97.23;100862.97;5045100;28;19921;-57
2022/09/10 01:52:46;;;;;;;;;;;;;;;14.42;97.05;100876.31;5049069;28;20487;-56
2022/09/10 01:55:21;;;;;;;;;;;;;;;14.43;97.05;100870.00;5049272;28;19939;-56
2022/09/10 01:57:56;;;;;;;;;;;;;;;14.42;97.54;100870.97;5050122;28;19995;-57
2022/09/10 02:00:23;;;;;;;;;;;;;;;14.41;97.21;100864.81;5045264;28;19944;-57
2022/09/10 02:03:07;;;;;;;;;;;;;;;14.43;97.60;100859.31;5044818;28;19960;-58
2022/09/10 02:05:35;;;;;;;;;;;;;;;14.43;97.71;100864.66;5054341;28;20419;-56
2022/09/10 02:08:02;;;;;;;;;;;;;;;14.43;97.63;100864.66;5046740;28;19920;-57
2022/09/10 02:10:27;;;;;;;;;;;;;;;14.44;97.74;100856.44;5046932;28;20430;-57
2022/09/10 02:12:53;;;;;;;;;;;;;;;14.43;98.13;100853.97;5048604;28;19921;-57
2022/09/10 02:15:20;;;;;;;;;;;;;;;14.44;98.38;100855.59;5041561;28;19948;-57
2022/09/10 02:17:46;;;;;;;;;;;;;;;14.42;98.61;100852.28;5052725;28;20023;-56
2022/09/10 02:20:13;;;;;;;;;;;;;;;14.44;98.64;100853.75;5048241;28;19930;-57
2022/09/10 02:22:39;;;;;;;;;;;;;;;14.45;98.59;100857.25;5050223;28;19990;-56
2022/09/10 02:25:04;;;;;;;;;;;;;;;14.46;99.02;100856.28;5045069;28;20383;-57
2022/09/10 02:27:30;;;;;;;;;;;;;;;14.46;98.91;100851.75;5052018;28;19967;-57
2022/09/10 02:29:56;;;;;;;;;;;;;;;14.47;99.26;100847.22;5048369;28;19939;-56
2022/09/10 02:32:21;;;;;;;;;;;;;;;14.46;98.80;100843.72;5049929;28;20375;-58
2022/09/10 02:34:47;;;;;;;;;;;;;;;14.47;99.47;100845.38;5046078;28;19917;-57
2022/09/10 02:37:12;;;;;;;;;;;;;;;14.49;99.37;100847.84;5046510;28;19939;-57
2022/09/10 02:39:38;;;;;;;;;;;;;;;14.49;99.35;100846.00;5043882;28;19917;-57
2022/09/10 02:42:04;;;;;;;;;;;;;;;14.47;99.31;100842.72;5042797;28;19923;-57
2022/09/10 02:44:29;;;;;;;;;;;;;;;14.48;99.54;100847.03;5047922;28;19921;-56
2022/09/10 02:46:55;;;;;;;;;;;;;;;14.48;99.76;100849.72;5049710;28;19917;-56
2022/09/10 02:49:20;;;;;;;;;;;;;;;14.48;99.79;100847.03;5043793;28;19957;-57
2022/09/10 02:51:45;;;;;;;;;;;;;;;14.49;99.48;100847.84;5049026;28;19920;-57
2022/09/10 02:54:11;;;;;;;;;;;;;;;14.50;99.65;100847.66;5046434;28;19921;-57
2022/09/10 02:56:36;;;;;;;;;;;;;;;14.50;99.70;100844.16;5044004;28;19920;-58
2022/09/10 02:59:01;;;;;;;;;;;;;;;14.50;100.00;100849.50;5044417;28;20019;-57
2022/09/10 03:01:27;;;;;;;;;;;;;;;14.50;100.00;100850.34;5046196;28;19916;-56
2022/09/10 03:03:53;;;;;;;;;;;;;;;14.52;100.00;100847.47;5046264;28;19921;-57
2022/09/10 03:06:20;;;;;;;;;;;;;;;14.52;100.00;100845.63;5042309;28;19917;-57
2022/09/10 03:08:46;;;;;;;;;;;;;;;14.53;100.00;100852.59;5043072;28;19963;-56
2022/09/10 03:11:14;;;;;;;;;;;;;;;14.56;100.00;100856.72;5044460;28;19924;-54
2022/09/10 03:13:39;;;;;;;;;;;;;;;14.55;100.00;100855.91;5047151;28;19916;-57
2022/09/10 03:16:04;;;;;;;;;;;;;;;14.55;100.00;100850.56;5049815;28;19940;-58
2022/09/10 03:18:30;;;;;;;;;;;;;;;14.56;100.00;100848.72;5047183;28;19913;-57
2022/09/10 03:21:06;;;;;;;;;;;;;;;14.54;100.00;100848.91;5048429;28;19923;-58
2022/09/10 03:23:32;;;;;;;;;;;;;;;14.56;100.00;100846.03;5040068;28;19979;-58
2022/09/10 03:25:58;;;;;;;;;;;;;;;14.54;100.00;100843.56;5045562;28;19919;-58
2022/09/10 03:28:23;;;;;;;;;;;;;;;14.55;100.00;100847.06;5047643;28;20376;-58
2022/09/10 03:30:48;;;;;;;;;;;;;;;14.56;100.00;100849.53;5047817;28;19923;-57
2022/09/10 03:33:14;;;;;;;;;;;;;;;14.57;100.00;100848.53;5047701;28;20032;-58
2022/09/10 03:35:39;;;;;;;;;;;;;;;14.58;100.00;100846.66;5049163;28;20372;-57
2022/09/10 03:38:04;;;;;;;;;;;;;;;14.59;100.00;100842.16;5038885;28;19925;-57
2022/09/10 03:40:30;;;;;;;;;;;;;;;14.59;100.00;100842.16;5048570;28;19913;-56
2022/09/10 03:42:55;;;;;;;;;;;;;;;14.59;100.00;100840.31;5043283;28;19925;-55
2022/09/10 03:45:20;;;;;;;;;;;;;;;14.59;100.00;100840.31;5048469;28;19913;-57
2022/09/10 03:47:46;;;;;;;;;;;;;;;14.60;100.00;100841.94;5050569;28;19912;-57
2022/09/10 03:50:11;;;;;;;;;;;;;;;14.59;100.00;100842.97;5047576;28;19994;-56
2022/09/10 03:52:36;;;;;;;;;;;;;;;14.60;100.00;100849.97;5041140;28;19987;-56
2022/09/10 03:55:01;;;;;;;;;;;;;;;14.59;100.00;100842.97;5041062;28;20372;-57
2022/09/10 03:57:26;;;;;;;;;;;;;;;14.59;100.00;100834.97;5049048;28;19912;-57
2022/09/10 03:59:52;;;;;;;;;;;;;;;14.60;100.00;100833.09;5049168;28;20345;-57
2022/09/10 04:02:17;;;;;;;;;;;;;;;14.60;100.00;100835.78;5045955;28;19923;-56
2022/09/10 04:04:42;;;;;;;;;;;;;;;14.61;100.00;100837.44;5048583;28;19921;-59
2022/09/10 04:07:08;;;;;;;;;;;;;;;14.61;100.00;100832.91;5046335;28;19941;-57
2022/09/10 04:09:33;;;;;;;;;;;;;;;14.63;100.00;100822.03;5046658;28;19917;-58
2022/09/10 04:11:59;;;;;;;;;;;;;;;14.64;100.00;100829.00;5043129;28;20011;-57
2022/09/10 04:14:25;;;;;;;;;;;;;;;14.65;100.00;100828.00;5046862;28;20378;-56
2022/09/10 04:16:51;;;;;;;;;;;;;;;14.65;100.00;100822.66;5044599;28;19932;-56
2022/09/10 04:19:16;;;;;;;;;;;;;;;14.65;100.00;100831.50;5040217;28;19947;-57
2022/09/10 04:21:41;;;;;;;;;;;;;;;14.66;100.00;100826.97;5045577;28;20548;-57
2022/09/10 04:24:09;;;;;;;;;;;;;;;14.67;100.00;100825.94;5038736;28;19965;-57
2022/09/10 04:26:35;;;;;;;;;;;;;;;14.67;100.00;100828.63;5044762;28;19960;-57
2022/09/10 04:29:00;;;;;;;;;;;;;;;14.68;100.00;100827.59;5037558;28;19994;-57
2022/09/10 04:31:25;;;;;;;;;;;;;;;14.68;100.00;100822.25;5040318;28;19970;-57
2022/09/10 04:33:50;;;;;;;;;;;;;;;14.69;100.00;100821.22;5042832;28;19921;-57
2022/09/10 04:36:16;;;;;;;;;;;;;;;14.69;100.00;100822.06;5045293;28;21323;-57
2022/09/10 04:38:42;;;;;;;;;;;;;;;14.69;100.00;100829.25;5043537;28;19916;-57
2022/09/10 04:41:08;;;;;;;;;;;;;;;14.70;100.00;100822.88;5049240;28;19920;-58
2022/09/10 04:43:33;;;;;;;;;;;;;;;14.72;100.00;100826.19;5046941;28;19947;-57
2022/09/10 04:45:58;;;;;;;;;;;;;;;14.70;100.00;100823.69;5045192;28;19920;-57
2022/09/10 04:48:24;;;;;;;;;;;;;;;14.70;100.00;100831.72;5042323;28;20402;-57
2022/09/10 04:50:52;;;;;;;;;;;;;;;14.70;100.00;100834.38;5042214;28;20292;-58
2022/09/10 04:53:18;;;;;;;;;;;;;;;14.72;100.00;100836.88;5038769;28;20419;-57
2022/09/10 04:55:44;;;;;;;;;;;;;;;14.71;100.00;100836.03;5037920;28;19925;-58
2022/09/10 04:58:10;;;;;;;;;;;;;;;14.72;100.00;100829.66;5041565;28;19921;-58
2022/09/10 05:00:35;;;;;;;;;;;;;;;14.73;100.00;100833.16;5048924;28;19913;-58
2022/09/10 05:03:00;;;;;;;;;;;;;;;14.73;100.00;100835.84;5040386;28;19987;-58
2022/09/10 05:05:25;;;;;;;;;;;;;;;14.74;100.00;100837.50;5045813;28;19927;-58
2022/09/10 05:07:52;;;;;;;;;;;;;;;14.76;100.00;100832.81;5044712;28;19924;-57
2022/09/10 05:10:17;;;;;;;;;;;;;;;14.76;100.00;100830.13;5042463;28;19925;-58
2022/09/10 05:12:43;;;;;;;;;;;;;;;14.75;100.00;100826.63;5044105;28;20074;-57
2022/09/10 05:15:08;;;;;;;;;;;;;;;14.76;100.00;100832.81;5047540;28;19952;-56
2022/09/10 05:17:34;;;;;;;;;;;;;;;14.77;100.00;100834.44;5046149;28;20406;-58
2022/09/10 05:19:59;;;;;;;;;;;;;;;14.79;100.00;100840.41;5042648;28;19982;-57
2022/09/10 05:22:24;;;;;;;;;;;;;;;14.78;100.00;100841.44;5045984;28;19959;-58
2022/09/10 05:24:49;;;;;;;;;;;;;;;14.80;100.00;100834.06;5045603;28;19923;-57
2022/09/10 05:27:15;;;;;;;;;;;;;;;14.80;100.00;100842.91;5043026;28;19969;-57
2022/09/10 05:29:41;;;;;;;;;;;;;;;14.81;100.00;100839.19;5042475;28;19931;-58
2022/09/10 05:32:08;;;;;;;;;;;;;;;14.81;100.00;100838.38;5043076;28;19924;-58
2022/09/10 05:34:33;;;;;;;;;;;;;;;14.81;100.00;100841.88;5043429;28;19948;-58
2022/09/10 05:36:59;;;;;;;;;;;;;;;14.81;100.00;100825.84;5045472;28;19967;-58
2022/09/10 05:39:24;;;;;;;;;;;;;;;14.82;100.00;100827.47;5047383;28;19916;-57
2022/09/10 05:41:49;;;;;;;;;;;;;;;14.83;100.00;100833.66;5040719;28;20023;-58
2022/09/10 05:44:16;;;;;;;;;;;;;;;14.84;100.00;100832.63;5051389;28;19960;-57
2022/09/10 05:46:41;;;;;;;;;;;;;;;14.84;100.00;100828.09;5042012;28;20619;-56
2022/09/10 05:49:06;;;;;;;;;;;;;;;14.84;100.00;100836.13;5048511;28;20006;-58
2022/09/10 05:51:31;;;;;;;;;;;;;;;14.85;100.00;100832.44;5041173;28;19917;-56
2022/09/10 05:53:57;;;;;;;;;;;;;;;14.87;100.00;100834.91;5048252;28;20437;-58
2022/09/10 05:56:24;;;;;;;;;;;;;;;14.88;100.00;100841.91;5043264;28;20020;-58
2022/09/10 05:58:49;;;;;;;;;;;;;;;14.89;100.00;100835.53;5053282;28;19916;-58
2022/09/10 06:01:14;;;;;;;;;;;;;;;14.85;100.00;100826.25;5050602;28;19919;-57
2022/09/10 06:03:39;;;;;;;;;;;;;;;14.94;100.00;100840.28;5049181;28;20301;-57
2022/09/10 06:06:05;;;;;;;;;;;;;;;14.96;100.00;100841.72;5053631;28;19919;-57
2022/09/10 06:08:30;;;;;;;;;;;;;;;14.98;100.00;100844.19;5044504;28;19956;-57
2022/09/10 06:11:05;;;;;;;;;;;;;;;14.99;100.00;100846.66;5046471;28;19921;-57
2022/09/10 06:13:31;;;;;;;;;;;;;;;15.02;100.00;100837.41;5046709;28;20431;-58
2022/09/10 06:15:57;;;;;;;;;;;;;;;15.06;100.00;100844.03;5046531;28;20011;-57
2022/09/10 06:18:22;;;;;;;;;;;;;;;15.02;100.00;100846.25;5049873;28;19997;-56
2022/09/10 06:20:47;;;;;;;;;;;;;;;15.03;100.00;100850.59;5047329;28;19930;-57
2022/09/10 06:23:16;;;;;;;;;;;;;;;15.02;100.00;100848.94;5049423;28;19917;-58
2022/09/10 06:25:42;;;;;;;;;;;;;;;15.00;100.00;100842.97;5051424;28;19936;-57
2022/09/10 06:28:08;;;;;;;;;;;;;;;15.00;100.00;100861.69;5049156;28;20376;-57
2022/09/10 06:30:34;;;;;;;;;;;;;;;14.99;100.00;100846.66;5050510;28;19921;-57
2022/09/10 06:32:59;;;;;;;;;;;;;;;14.99;100.00;100849.34;5044524;28;19944;-58
2022/09/10 06:35:26;;;;;;;;;;;;;;;14.98;100.00;100850.38;5043658;28;19952;-57
2022/09/10 06:37:51;;;;;;;;;;;;;;;14.99;100.00;100849.34;5048740;28;20011;-56
2022/09/10 06:40:17;;;;;;;;;;;;;;;15.00;100.00;100860.88;5041726;28;20063;-58
2022/09/10 06:42:42;;;;;;;;;;;;;;;15.00;100.00;100856.34;5046476;28;19916;-58
2022/09/10 06:45:07;;;;;;;;;;;;;;;15.01;100.00;100859.84;5047092;28;19924;-57
2022/09/10 06:47:33;;;;;;;;;;;;;;;15.00;100.00;100856.34;5042309;28;20451;-58
2022/09/10 06:49:58;;;;;;;;;;;;;;;15.01;100.00;100858.00;5045551;28;19913;-58
2022/09/10 06:52:23;;;;;;;;;;;;;;;14.99;100.00;100854.69;5037504;28;20443;-58
2022/09/10 06:54:50;;;;;;;;;;;;;;;15.01;100.00;100857.16;5035649;28;19917;-57
2022/09/10 06:57:16;;;;;;;;;;;;;;;15.03;100.00;100857.78;5046998;28;20331;-58
2022/09/10 06:59:42;;;;;;;;;;;;;;;15.04;100.00;100854.13;5044782;28;20260;-57
2022/09/10 07:02:07;;;;;;;;;;;;;;;15.07;100.00;100861.75;5044833;28;20411;-58
2022/09/10 07:04:33;;;;;;;;;;;;;;;15.08;100.00;100863.38;5043375;28;19971;-58
2022/09/10 07:06:58;;;;;;;;;;;;;;;15.03;100.00;100871.97;5044514;28;19913;-57
2022/09/10 07:09:23;;;;;;;;;;;;;;;14.98;100.00;100861.06;5040668;28;20601;-57
2022/09/10 07:11:48;;;;;;;;;;;;;;;14.97;100.00;100866.63;5047901;28;19917;-57
2022/09/10 07:14:14;;;;;;;;;;;;;;;14.97;100.00;100867.44;5051026;28;20012;-57
2022/09/10 07:16:43;;;;;;;;;;;;;;;14.98;100.00;100869.09;5048459;28;19967;-57
2022/09/10 07:19:08;;;;;;;;;;;;;;;14.98;100.00;100871.75;5047969;28;19917;-57
2022/09/10 07:21:35;;;;;;;;;;;;;;;14.99;100.00;100865.38;5044680;28;20207;-56
2022/09/10 07:24:00;;;;;;;;;;;;;;;15.01;100.00;100874.03;5047586;28;20364;-57
2022/09/10 07:26:26;;;;;;;;;;;;;;;15.02;100.00;100872.19;5046149;28;19935;-57
2022/09/10 07:28:51;;;;;;;;;;;;;;;15.04;100.00;100876.34;5044418;28;19948;-57
2022/09/10 07:31:19;;;;;;;;;;;;;;;15.06;100.00;100876.97;5047960;28;20376;-58
2022/09/10 07:33:45;;;;;;;;;;;;;;;15.06;100.00;100885.00;5049845;28;19925;-57
2022/09/10 07:36:14;;;;;;;;;;;;;;;15.10;100.00;100885.41;5046121;28;19948;-57
2022/09/10 07:38:40;;;;;;;;;;;;;;;15.12;100.00;100889.53;5049013;28;20400;-57
2022/09/10 07:41:06;;;;;;;;;;;;;;;15.14;100.00;100886.66;5049100;28;19935;-56
2022/09/10 07:43:31;;;;;;;;;;;;;;;15.14;100.00;100886.66;5048780;28;19996;-57
2022/09/10 07:45:56;;;;;;;;;;;;;;;15.16;100.00;100888.09;5051469;28;19920;-57
2022/09/10 07:48:21;;;;;;;;;;;;;;;15.19;100.00;100893.06;5049237;28;19917;-57
2022/09/10 07:50:47;;;;;;;;;;;;;;;15.22;100.00;100901.72;5038746;28;20320;-57
2022/09/10 07:53:12;;;;;;;;;;;;;;;15.24;100.00;100897.81;5042248;28;20008;-57
2022/09/10 07:55:37;;;;;;;;;;;;;;;15.27;100.00;100904.59;5049353;28;19916;-56
2022/09/10 07:58:02;;;;;;;;;;;;;;;15.28;100.00;100900.91;5044804;28;19936;-58
2022/09/10 08:00:28;;;;;;;;;;;;;;;15.30;100.00;100898.84;5042285;28;19987;-56
2022/09/10 08:02:53;;;;;;;;;;;;;;;15.35;100.00;100901.78;5048905;28;19916;-57
2022/09/10 08:05:18;;;;;;;;;;;;;;;15.39;100.00;100906.53;5050520;28;19913;-56
2022/09/10 08:07:44;;;;;;;;;;;;;;;15.45;100.00;100902.22;5050595;28;20007;-57
2022/09/10 08:10:09;;;;;;;;;;;;;;;15.53;100.00;100914.59;5044981;28;20387;-57
2022/09/10 08:12:35;;;;;;;;;;;;;;;15.60;100.00;100908.25;5044586;28;19921;-57
2022/09/10 08:15:00;;;;;;;;;;;;;;;15.69;100.00;100911.59;5046538;28;19912;-56
2022/09/10 08:17:27;;;;;;;;;;;;;;;15.79;100.00;100914.69;5051734;28;19925;-57
2022/09/10 08:19:52;;;;;;;;;;;;;;;15.88;100.00;100918.00;5046542;28;20003;-58
2022/09/10 08:22:19;;;;;;;;;;;;;;;15.97;100.00;100922.16;5044360;28;19999;-56
2022/09/10 08:24:46;;;;;;;;;;;;;;;16.00;100.00;100919.06;5050476;28;20354;-56
2022/09/10 08:27:11;;;;;;;;;;;;;;;16.07;100.00;100936.78;5048643;28;19920;-57
2022/09/10 08:29:37;;;;;;;;;;;;;;;16.14;100.00;100935.97;5045701;28;19921;-57
2022/09/10 08:32:02;;;;;;;;;;;;;;;16.18;100.00;100935.34;5047951;28;19977;-58
2022/09/10 08:34:28;;;;;;;;;;;;;;;16.22;100.00;100941.16;5045207;28;19913;-59
2022/09/10 08:36:54;;;;;;;;;;;;;;;16.27;100.00;100944.84;5046906;28;19920;-58
2022/09/10 08:39:19;;;;;;;;;;;;;;;16.30;100.00;100947.13;5046357;28;20003;-58
2022/09/10 08:41:54;;;;;;;;;;;;;;;16.25;100.00;100949.59;5049059;28;20291;-58
2022/09/10 08:44:26;;;;;;;;;;;;;;;16.24;100.00;100956.00;5046389;28;20475;-57
2022/09/10 08:46:54;;;;;;;;;;;;;;;16.26;100.00;100951.25;5038468;28;19921;-58
2022/09/10 08:49:22;;;;;;;;;;;;;;;16.28;100.00;100964.44;5048811;28;19913;-57
2022/09/10 08:51:52;;;;;;;;;;;;;;;16.32;100.00;100960.31;5047288;28;20422;-57
2022/09/10 08:54:24;;;;;;;;;;;;;;;16.28;100.00;100962.59;5048020;28;19920;-56
2022/09/10 08:56:52;;;;;;;;;;;;;;;16.25;100.00;100965.69;5045296;28;20012;-57
2022/09/10 08:59:21;;;;;;;;;;;;;;;16.20;100.00;100970.81;5040953;28;20374;-57
2022/09/10 09:01:53;;;;;;;;;;;;;;;16.19;100.00;100966.50;5041479;28;19913;-56
2022/09/10 09:04:41;;;;;;;;;;;;;;;16.16;100.00;100969.56;5047161;28;19941;-57
2022/09/10 09:07:13;;;;;;;;;;;;;;;16.16;100.00;100968.75;5042609;28;19913;-57
2022/09/10 09:09:39;;;;;;;;;;;;;;;16.17;100.00;100971.22;5044411;28;20007;-56
2022/09/10 09:12:14;;;;;;;;;;;;;;;16.19;100.00;100971.00;5048578;28;19999;-57
2022/09/10 09:14:54;;;;;;;;;;;;;;;16.19;100.00;100985.25;5050424;28;19917;-57
2022/09/10 09:17:39;;;;;;;;;;;;;;;16.18;100.00;100980.91;5051418;28;19935;-58
2022/09/10 09:20:17;;;;;;;;;;;;;;;16.19;100.00;100979.03;5050302;28;19924;-57
2022/09/10 09:22:51;;;;;;;;;;;;;;;16.25;100.00;100975.56;5047772;28;20422;-57
2022/09/10 09:25:19;;;;;;;;;;;;;;;16.33;100.00;100976.19;5046500;28;20332;-56
2022/09/10 09:27:44;;;;;;;;;;;;;;;16.38;100.00;100976.41;5045129;28;20007;-57
2022/09/10 09:30:16;;;;;;;;;;;;;;;16.45;100.00;100981.75;5048333;28;20400;-58
2022/09/10 09:32:42;;;;;;;;;;;;;;;16.57;100.00;100977.44;5048040;28;19916;-58
2022/09/10 09:35:27;;;;;;;;;;;;;;;16.65;100.00;100984.44;5046406;28;19917;-56
2022/09/10 09:38:02;;;;;;;;;;;;;;;16.67;100.00;100980.56;5043061;28;19928;-57
2022/09/10 09:40:36;;;;;;;;;;;;;;;16.73;100.00;100986.94;5049039;28;19913;-57
2022/09/10 09:43:11;;;;;;;;;;;;;;;16.73;100.00;100973.53;5046172;28;20372;-57
2022/09/10 09:45:37;;;;;;;;;;;;;;;16.75;100.00;100968.78;5049416;28;19917;-57
2022/09/10 09:48:05;;;;;;;;;;;;;;;16.76;100.00;100980.34;5049771;28;20112;-57
2022/09/10 09:50:31;;;;;;;;;;;;;;;16.78;100.00;100976.44;5043652;28;20327;-58
2022/09/10 09:52:56;;;;;;;;;;;;;;;16.89;100.00;100983.84;5043220;28;19920;-57
2022/09/10 09:55:31;;;;;;;;;;;;;;;17.01;100.00;100984.84;5049623;28;19913;-58
2022/09/10 09:58:25;;;;;;;;;;;;;;;17.20;100.00;100990.38;5048524;28;20606;-58
2022/09/10 10:01:03;;;;;;;;;;;;;;;17.34;100.00;100974.03;5049634;28;19941;-56
2022/09/10 10:03:29;;;;;;;;;;;;;;;17.44;99.59;100970.91;5045037;28;19970;-57
2022/09/10 10:06:08;;;;;;;;;;;;;;;17.50;98.68;100972.75;5037025;28;19917;-58
2022/09/10 10:08:39;;;;;;;;;;;;;;;17.56;98.31;100984.47;5047493;28;19917;-57
2022/09/10 10:11:05;;;;;;;;;;;;;;;17.58;97.94;101010.09;5044483;28;19913;-57
2022/09/10 10:13:35;;;;;;;;;;;;;;;17.60;97.18;101002.66;5046363;28;19917;-57
2022/09/10 10:16:12;;;;;;;;;;;;;;;17.64;97.04;101011.13;5050145;28;19917;-56
2022/09/10 10:18:37;;;;;;;;;;;;;;;17.65;96.78;101007.41;5048147;28;19936;-57
2022/09/10 10:21:14;;;;;;;;;;;;;;;17.65;96.88;100996.66;5040864;28;20292;-57
2022/09/10 10:23:39;;;;;;;;;;;;;;;17.69;97.07;100999.78;5053070;28;19954;-58
2022/09/10 10:26:20;;;;;;;;;;;;;;;17.64;95.96;100986.94;5045768;28;19955;-58
2022/09/10 10:28:46;;;;;;;;;;;;;;;17.54;95.61;100983.88;5043235;28;19942;-58
2022/09/10 10:31:12;;;;;;;;;;;;;;;17.43;95.71;101001.47;5049603;28;19913;-57
2022/09/10 10:33:44;;;;;;;;;;;;;;;17.17;96.56;101006.91;5048127;28;19982;-58
2022/09/10 10:36:14;;;;;;;;;;;;;;;16.91;97.61;101011.28;5044382;28;20402;-57
2022/09/10 10:38:41;;;;;;;;;;;;;;;16.85;98.55;101030.91;5055099;28;20402;-57
2022/09/10 10:41:15;;;;;;;;;;;;;;;16.75;99.08;101026.97;5049208;28;19913;-58
2022/09/10 10:43:59;;;;;;;;;;;;;;;16.75;99.32;101035.00;5049680;28;20635;-57
2022/09/10 10:46:30;;;;;;;;;;;;;;;16.64;99.27;101026.53;5046280;28;19920;-57
2022/09/10 10:49:04;;;;;;;;;;;;;;;16.58;99.62;101030.03;5042308;28;19917;-57
2022/09/10 10:51:45;;;;;;;;;;;;;;;16.59;99.83;101031.69;5047598;28;19917;-57
2022/09/10 10:54:22;;;;;;;;;;;;;;;16.59;99.99;101033.53;5043131;28;20384;-57
2022/09/10 10:56:55;;;;;;;;;;;;;;;16.56;100.00;101044.69;5040217;28;19917;-57
2022/09/10 10:59:33;;;;;;;;;;;;;;;16.55;100.00;101043.84;5048126;28;19917;-58
2022/09/10 11:02:21;;;;;;;;;;;;;;;16.60;100.00;101052.09;5043785;28;19917;-58
2022/09/10 11:04:49;;;;;;;;;;;;;;;16.68;100.00;101045.75;5031777;28;19920;-57
2022/09/10 11:07:20;;;;;;;;;;;;;;;16.71;100.00;101048.84;5044717;28;20407;-57
2022/09/10 11:09:59;;;;;;;;;;;;;;;16.80;100.00;101048.66;5039971;28;19913;-58
2022/09/10 11:12:44;;;;;;;;;;;;;;;16.85;100.00;101047.00;5049032;28;19917;-58
2022/09/10 11:15:30;;;;;;;;;;;;;;;16.88;100.00;101046.56;5049717;28;19921;-57
2022/09/10 11:18:01;;;;;;;;;;;;;;;16.93;100.00;101035.22;5043657;28;19971;-58
2022/09/10 11:20:37;;;;;;;;;;;;;;;16.96;100.00;101051.72;5041053;28;19925;-57
2022/09/10 11:23:02;;;;;;;;;;;;;;;16.99;100.00;101055.84;5041941;28;19919;-56
2022/09/10 11:25:32;;;;;;;;;;;;;;;17.04;99.96;101046.13;5046226;28;19921;-57
2022/09/10 11:28:04;;;;;;;;;;;;;;;17.09;100.00;101047.41;5051894;28;20276;-58
2022/09/10 11:30:32;;;;;;;;;;;;;;;17.16;99.41;101037.47;5045163;28;19919;-58
2022/09/10 11:33:04;;;;;;;;;;;;;;;17.27;99.46;101044.88;5050563;28;19929;-58
2022/09/10 11:35:32;;;;;;;;;;;;;;;17.48;99.65;101050.00;5042312;28;19943;-58
2022/09/10 11:38:21;;;;;;;;;;;;;;;17.71;99.40;101052.25;5042844;28;19931;-58
2022/09/10 11:41:05;;;;;;;;;;;;;;;17.92;98.99;101045.72;5040422;28;19966;-58
2022/09/10 11:43:40;;;;;;;;;;;;;;;18.03;98.50;101046.94;5042798;28;19932;-58
2022/09/10 11:46:18;;;;;;;;;;;;;;;18.11;98.37;101044.81;5047691;28;19913;-59
2022/09/10 11:48:43;;;;;;;;;;;;;;;18.17;98.38;101046.63;5045499;28;19991;-58
2022/09/10 11:51:18;;;;;;;;;;;;;;;18.22;98.22;101054.09;5046853;28;20560;-58
2022/09/10 11:53:44;;;;;;;;;;;;;;;18.24;97.25;101050.13;5052444;28;19928;-57
2022/09/10 11:56:18;;;;;;;;;;;;;;;18.31;97.06;101051.94;5053768;28;20027;-58
2022/09/10 11:58:50;;;;;;;;;;;;;;;18.40;96.44;101043.41;5047686;28;20604;-57
2022/09/10 12:01:18;;;;;;;;;;;;;;;18.48;95.72;101047.69;5038237;28;19917;-56
2022/09/10 12:03:46;;;;;;;;;;;;;;;18.64;95.58;101038.31;5036974;28;20457;-57
2022/09/10 12:06:27;;;;;;;;;;;;;;;18.78;94.19;101046.03;5038120;28;19977;-58
2022/09/10 12:09:06;;;;;;;;;;;;;;;18.91;93.33;101050.50;5045412;28;19917;-58
2022/09/10 12:11:34;;;;;;;;;;;;;;;18.94;92.35;101051.94;5045490;28;20288;-57
2022/09/10 12:14:04;;;;;;;;;;;;;;;19.07;92.50;101055.31;5046231;28;20399;-58
2022/09/10 12:16:40;;;;;;;;;;;;;;;19.27;92.54;101060.50;5046333;28;19931;-56
2022/09/10 12:19:07;;;;;;;;;;;;;;;19.45;93.05;101065.94;5042039;28;19935;-58
2022/09/10 12:21:36;;;;;;;;;;;;;;;19.46;91.92;101064.88;5042919;28;19921;-58
2022/09/10 12:24:05;;;;;;;;;;;;;;;19.41;91.89;101067.44;5045696;28;19916;-58
2022/09/10 12:26:39;;;;;;;;;;;;;;;19.36;90.93;101069.94;5047221;28;20399;-58
2022/09/10 12:29:05;;;;;;;;;;;;;;;19.39;90.40;101066.84;5045106;28;19928;-58
2022/09/10 12:31:51;;;;;;;;;;;;;;;19.50;90.89;101071.47;5046242;28;19913;-59
2022/09/10 12:34:18;;;;;;;;;;;;;;;19.65;90.87;101075.69;5047067;28;19929;-59
2022/09/10 12:36:46;;;;;;;;;;;;;;;19.70;89.72;101081.25;5049581;28;19939;-59